createdAt,value
2018-07-15T00:01:01.240Z,0.00
2018-07-15T00:02:01.185Z,0.00
2018-07-15T00:03:54.207Z,0.00
2018-07-15T00:04:54.155Z,0.00
2018-07-15T00:06:47.159Z,0.00
2018-07-15T00:07:47.105Z,0.00
2018-07-15T00:09:39.953Z,0.00
2018-07-15T00:10:39.904Z,0.00
2018-07-15T00:12:32.704Z,0.00
2018-07-15T00:13:32.677Z,0.00
2018-07-15T00:15:25.700Z,0.00
2018-07-15T00:16:25.661Z,0.00
2018-07-15T00:18:18.790Z,0.00
2018-07-15T00:19:18.753Z,0.00
2018-07-15T00:21:11.591Z,0.00
2018-07-15T00:22:11.536Z,0.00
2018-07-15T00:24:04.547Z,0.00
2018-07-15T00:25:04.511Z,0.00
2018-07-15T00:26:57.626Z,0.00
2018-07-15T00:27:57.590Z,0.00
2018-07-15T00:29:50.616Z,0.00
2018-07-15T00:30:50.563Z,0.00
2018-07-15T00:32:43.556Z,0.00
2018-07-15T00:33:43.541Z,0.00
2018-07-15T00:35:36.359Z,0.00
2018-07-15T00:36:36.313Z,0.00
2018-07-15T00:38:29.336Z,0.00
2018-07-15T00:39:29.302Z,0.00
2018-07-15T00:41:22.372Z,0.00
2018-07-15T00:42:22.327Z,0.00
2018-07-15T00:44:15.493Z,0.00
2018-07-15T00:45:15.461Z,0.00
2018-07-15T00:47:08.479Z,0.00
2018-07-15T00:48:08.429Z,0.00
2018-07-15T00:50:01.250Z,0.00
2018-07-15T00:51:01.198Z,0.00
2018-07-15T00:52:54.380Z,0.00
2018-07-15T00:53:54.333Z,0.00
2018-07-15T00:55:47.334Z,0.00
2018-07-15T00:56:47.294Z,0.00
2018-07-15T00:58:40.555Z,0.00
2018-07-15T00:59:40.481Z,0.00
2018-07-15T01:01:33.509Z,0.00
2018-07-15T01:02:33.459Z,0.00
2018-07-15T01:04:26.298Z,0.00
2018-07-15T01:05:26.247Z,0.00
2018-07-15T01:07:19.440Z,0.00
2018-07-15T01:08:19.356Z,0.00
2018-07-15T01:10:12.390Z,0.00
2018-07-15T01:11:12.333Z,0.00
2018-07-15T01:13:05.363Z,0.00
2018-07-15T01:14:05.318Z,0.00
2018-07-15T01:15:58.120Z,0.00
2018-07-15T01:16:58.093Z,0.00
2018-07-15T01:18:51.007Z,0.00
2018-07-15T01:19:50.881Z,0.00
2018-07-15T01:21:43.893Z,0.00
2018-07-15T01:22:43.840Z,0.00
2018-07-15T01:24:36.882Z,0.00
2018-07-15T01:25:36.839Z,0.00
2018-07-15T01:27:29.867Z,0.00
2018-07-15T01:28:29.814Z,0.00
2018-07-15T01:30:22.813Z,0.00
2018-07-15T01:31:22.791Z,0.00
2018-07-15T01:33:16.016Z,0.00
2018-07-15T01:34:15.866Z,0.00
2018-07-15T01:36:08.876Z,0.00
2018-07-15T01:37:08.838Z,0.00
2018-07-15T01:39:01.866Z,0.00
2018-07-15T01:40:01.803Z,0.00
2018-07-15T01:41:54.645Z,0.00
2018-07-15T01:42:54.609Z,0.00
2018-07-15T01:44:47.645Z,0.00
2018-07-15T01:45:47.581Z,0.00
2018-07-15T01:47:40.615Z,0.00
2018-07-15T01:48:40.551Z,0.00
2018-07-15T01:50:33.595Z,0.00
2018-07-15T01:51:33.568Z,0.00
2018-07-15T01:53:26.580Z,0.00
2018-07-15T01:54:26.538Z,0.00
2018-07-15T01:56:19.536Z,0.00
2018-07-15T01:57:19.486Z,0.00
2018-07-15T01:59:12.296Z,0.00
2018-07-15T02:00:12.262Z,0.00
2018-07-15T02:02:05.225Z,0.00
2018-07-15T02:03:05.044Z,0.00
2018-07-15T02:04:58.059Z,0.00
2018-07-15T02:05:58.013Z,0.00
2018-07-15T02:07:51.006Z,0.00
2018-07-15T02:08:50.980Z,0.00
2018-07-15T02:10:44.150Z,0.00
2018-07-15T02:11:44.095Z,0.00
2018-07-15T02:13:37.516Z,0.00
2018-07-15T02:14:36.868Z,0.00
2018-07-15T02:16:29.902Z,0.00
2018-07-15T02:17:29.852Z,0.00
2018-07-15T02:19:22.661Z,0.00
2018-07-15T02:20:22.637Z,0.00
2018-07-15T02:22:15.571Z,0.00
2018-07-15T02:23:15.413Z,0.00
2018-07-15T02:25:08.411Z,0.00
2018-07-15T02:26:08.373Z,0.00
2018-07-15T02:28:01.397Z,0.00
2018-07-15T02:29:01.346Z,0.00
2018-07-15T02:30:54.467Z,0.00
2018-07-15T02:31:54.436Z,0.00
2018-07-15T02:33:47.443Z,0.00
2018-07-15T02:34:47.454Z,0.00
2018-07-15T02:36:40.766Z,0.00
2018-07-15T02:37:40.529Z,0.00
2018-07-15T02:39:33.576Z,0.00
2018-07-15T02:40:33.557Z,0.00
2018-07-15T02:42:26.581Z,0.00
2018-07-15T02:43:26.505Z,0.00
2018-07-15T02:45:19.384Z,0.00
2018-07-15T02:46:19.298Z,0.00
2018-07-15T02:48:12.316Z,0.00
2018-07-15T02:49:12.273Z,0.00
2018-07-15T02:51:05.312Z,0.00
2018-07-15T02:52:05.277Z,0.00
2018-07-15T02:53:58.373Z,0.00
2018-07-15T02:54:58.327Z,0.00
2018-07-15T02:56:51.347Z,0.00
2018-07-15T02:57:51.409Z,0.00
2018-07-15T02:59:44.698Z,0.00
2018-07-15T03:00:44.365Z,0.00
2018-07-15T03:02:37.372Z,0.00
2018-07-15T03:03:37.318Z,0.00
2018-07-15T03:05:30.313Z,0.00
2018-07-15T03:06:30.277Z,0.00
2018-07-15T03:08:23.572Z,0.00
2018-07-15T03:09:23.490Z,0.00
2018-07-15T03:11:16.310Z,0.00
2018-07-15T03:12:16.274Z,0.00
2018-07-15T03:14:09.310Z,0.00
2018-07-15T03:15:09.248Z,0.00
2018-07-15T03:17:02.304Z,0.00
2018-07-15T03:18:02.278Z,0.00
2018-07-15T03:19:55.285Z,0.00
2018-07-15T03:20:55.236Z,0.00
2018-07-15T03:22:48.443Z,0.00
2018-07-15T03:23:48.325Z,0.00
2018-07-15T03:25:41.339Z,0.00
2018-07-15T03:26:41.288Z,0.00
2018-07-15T03:28:34.309Z,0.00
2018-07-15T03:29:34.257Z,0.00
2018-07-15T03:31:27.110Z,0.00
2018-07-15T03:32:27.048Z,0.00
2018-07-15T03:34:20.071Z,0.00
2018-07-15T03:35:20.026Z,0.00
2018-07-15T03:37:13.044Z,0.00
2018-07-15T03:38:12.983Z,0.00
2018-07-15T03:40:06.153Z,0.00
2018-07-15T03:41:06.081Z,0.00
2018-07-15T03:42:59.093Z,0.00
2018-07-15T03:43:59.053Z,0.00
2018-07-15T03:45:52.064Z,0.00
2018-07-15T03:46:52.022Z,0.00
2018-07-15T03:48:44.835Z,0.00
2018-07-15T03:49:44.795Z,0.00
2018-07-15T03:51:37.809Z,0.00
2018-07-15T03:52:37.750Z,0.00
2018-07-15T03:54:30.775Z,0.00
2018-07-15T03:55:30.769Z,0.00
2018-07-15T03:57:23.919Z,0.00
2018-07-15T03:58:23.873Z,0.00
2018-07-15T04:00:16.863Z,5.63
2018-07-15T04:01:16.826Z,5.63
2018-07-15T04:03:09.850Z,5.63
2018-07-15T04:04:09.800Z,5.63
2018-07-15T04:06:02.734Z,5.63
2018-07-15T04:07:02.572Z,5.63
2018-07-15T04:08:55.638Z,5.63
2018-07-15T04:09:55.554Z,5.63
2018-07-15T04:11:48.566Z,5.63
2018-07-15T04:12:48.521Z,5.63
2018-07-15T04:14:41.681Z,5.63
2018-07-15T04:15:41.631Z,5.63
2018-07-15T04:17:34.650Z,5.63
2018-07-15T04:18:34.591Z,5.63
2018-07-15T04:20:27.745Z,5.63
2018-07-15T04:21:27.699Z,5.63
2018-07-15T04:23:20.725Z,5.63
2018-07-15T04:24:20.681Z,5.63
2018-07-15T04:26:13.675Z,5.63
2018-07-15T04:27:13.640Z,5.63
2018-07-15T04:29:06.750Z,11.25
2018-07-15T04:30:06.646Z,11.25
2018-07-15T04:31:59.662Z,11.25
2018-07-15T04:32:59.617Z,11.25
2018-07-15T04:34:52.642Z,11.25
2018-07-15T04:35:52.601Z,11.25
2018-07-15T04:37:45.704Z,11.25
2018-07-15T04:38:45.592Z,11.25
2018-07-15T04:40:38.621Z,11.25
2018-07-15T04:41:38.617Z,11.25
2018-07-15T04:43:31.743Z,11.25
2018-07-15T04:44:31.693Z,11.25
2018-07-15T04:46:24.701Z,11.25
2018-07-15T04:47:24.653Z,11.25
2018-07-15T04:49:17.657Z,11.25
2018-07-15T04:50:17.597Z,11.25
2018-07-15T04:52:10.493Z,11.25
2018-07-15T04:53:10.457Z,11.25
2018-07-15T04:55:03.501Z,11.25
2018-07-15T04:56:03.437Z,11.25
2018-07-15T04:57:56.427Z,11.25
2018-07-15T04:58:56.402Z,11.25
2018-07-15T05:00:49.578Z,16.88
2018-07-15T05:01:49.513Z,16.88
2018-07-15T05:03:42.538Z,16.88
2018-07-15T05:04:42.493Z,16.88
2018-07-15T05:06:35.538Z,16.88
2018-07-15T05:07:35.497Z,16.88
2018-07-15T05:09:28.517Z,16.88
2018-07-15T05:10:28.459Z,16.88
2018-07-15T05:12:21.471Z,16.88
2018-07-15T05:13:21.456Z,16.88
2018-07-15T05:15:14.634Z,16.88
2018-07-15T05:16:14.538Z,16.88
2018-07-15T05:18:07.543Z,16.88
2018-07-15T05:19:07.513Z,16.88
2018-07-15T05:21:00.516Z,16.88
2018-07-15T05:22:00.473Z,16.88
2018-07-15T05:23:53.500Z,16.88
2018-07-15T05:24:53.462Z,16.88
2018-07-15T05:26:46.495Z,16.88
2018-07-15T05:27:46.489Z,16.88
2018-07-15T05:29:39.608Z,16.88
2018-07-15T05:30:39.568Z,16.88
2018-07-15T05:32:32.595Z,16.88
2018-07-15T05:33:32.555Z,16.88
2018-07-15T05:35:25.575Z,16.88
2018-07-15T05:36:25.531Z,16.88
2018-07-15T05:38:18.360Z,16.88
2018-07-15T05:39:18.316Z,16.88
2018-07-15T05:41:11.211Z,16.88
2018-07-15T05:42:11.088Z,16.88
2018-07-15T05:44:04.090Z,16.88
2018-07-15T05:45:04.054Z,22.50
2018-07-15T05:46:57.061Z,22.50
2018-07-15T05:47:57.014Z,22.50
2018-07-15T05:49:49.849Z,22.50
2018-07-15T05:50:49.814Z,22.50
2018-07-15T05:52:42.833Z,22.50
2018-07-15T05:53:42.779Z,22.50
2018-07-15T05:55:35.786Z,22.50
2018-07-15T05:56:35.757Z,22.50
2018-07-15T05:58:28.929Z,22.50
2018-07-15T05:59:28.893Z,22.50
2018-07-15T06:01:21.885Z,22.50
2018-07-15T06:02:21.935Z,22.50
2018-07-15T06:04:15.130Z,22.50
2018-07-15T06:05:15.010Z,22.50
2018-07-15T06:07:08.001Z,22.50
2018-07-15T06:08:07.969Z,22.50
2018-07-15T06:10:00.971Z,22.50
2018-07-15T06:11:00.929Z,22.50
2018-07-15T06:12:53.972Z,22.50
2018-07-15T06:13:53.937Z,22.50
2018-07-15T06:15:46.980Z,22.50
2018-07-15T06:16:46.950Z,22.50
2018-07-15T06:18:40.215Z,22.50
2018-07-15T06:19:40.078Z,22.50
2018-07-15T06:21:33.071Z,22.50
2018-07-15T06:22:33.061Z,22.50
2018-07-15T06:24:26.056Z,22.50
2018-07-15T06:25:26.016Z,22.50
2018-07-15T06:27:19.106Z,22.50
2018-07-15T06:28:19.060Z,28.13
2018-07-15T06:30:11.913Z,28.13
2018-07-15T06:31:11.852Z,28.13
2018-07-15T06:33:04.856Z,28.13
2018-07-15T06:34:04.817Z,28.13
2018-07-15T06:35:57.650Z,28.13
2018-07-15T06:36:57.596Z,28.13
2018-07-15T06:38:50.636Z,28.13
2018-07-15T06:39:50.581Z,28.13
2018-07-15T06:41:43.632Z,28.13
2018-07-15T06:42:43.576Z,28.13
2018-07-15T06:44:36.721Z,28.13
2018-07-15T06:45:36.682Z,28.13
2018-07-15T06:47:29.708Z,28.13
2018-07-15T06:48:29.668Z,28.13
2018-07-15T06:50:22.681Z,28.13
2018-07-15T06:51:22.631Z,28.13
2018-07-15T06:53:15.467Z,28.13
2018-07-15T06:54:15.431Z,28.13
2018-07-15T06:56:08.479Z,28.13
2018-07-15T06:57:08.412Z,28.13
2018-07-15T06:59:01.712Z,28.13
2018-07-15T07:00:01.677Z,28.13
2018-07-15T07:01:54.729Z,28.13
2018-07-15T07:02:54.665Z,28.13
2018-07-15T07:04:47.677Z,33.75
2018-07-15T07:05:47.634Z,33.75
2018-07-15T07:07:40.858Z,33.75
2018-07-15T07:08:40.700Z,33.75
2018-07-15T07:10:33.743Z,33.75
2018-07-15T07:11:33.675Z,33.75
2018-07-15T07:13:26.862Z,33.75
2018-07-15T07:14:26.795Z,33.75
2018-07-15T07:16:19.804Z,33.75
2018-07-15T07:17:19.753Z,33.75
2018-07-15T07:19:12.581Z,33.75
2018-07-15T07:20:12.553Z,33.75
2018-07-15T07:22:05.376Z,33.75
2018-07-15T07:23:05.333Z,33.75
2018-07-15T07:24:58.243Z,33.75
2018-07-15T07:25:58.203Z,33.75
2018-07-15T07:27:51.245Z,33.75
2018-07-15T07:28:51.209Z,33.75
2018-07-15T07:30:44.181Z,39.38
2018-07-15T07:31:44.146Z,39.38
2018-07-15T07:33:37.338Z,39.38
2018-07-15T07:34:37.279Z,39.38
2018-07-15T07:36:30.303Z,39.38
2018-07-15T07:37:30.330Z,39.38
2018-07-15T07:39:23.065Z,39.38
2018-07-15T07:40:23.040Z,39.38
2018-07-15T07:42:15.891Z,39.38
2018-07-15T07:43:15.810Z,39.38
2018-07-15T07:45:08.843Z,39.38
2018-07-15T07:46:08.790Z,39.38
2018-07-15T07:48:01.795Z,39.38
2018-07-15T07:49:01.811Z,39.38
2018-07-15T07:50:54.591Z,39.38
2018-07-15T07:51:54.547Z,39.38
2018-07-15T07:53:47.398Z,39.38
2018-07-15T07:54:47.363Z,39.38
2018-07-15T07:56:40.352Z,45.00
2018-07-15T07:57:40.330Z,45.00
2018-07-15T07:59:33.471Z,45.00
2018-07-15T08:00:33.425Z,45.00
2018-07-15T08:02:26.500Z,45.00
2018-07-15T08:03:26.476Z,45.00
2018-07-15T08:05:19.517Z,45.00
2018-07-15T08:06:19.464Z,45.00
2018-07-15T08:08:12.633Z,45.00
2018-07-15T08:09:12.585Z,45.00
2018-07-15T08:11:05.618Z,45.00
2018-07-15T08:12:05.563Z,45.00
2018-07-15T08:13:58.585Z,45.00
2018-07-15T08:14:58.544Z,45.00
2018-07-15T08:16:51.587Z,45.00
2018-07-15T08:17:51.558Z,45.00
2018-07-15T08:19:44.615Z,45.00
2018-07-15T08:20:44.588Z,45.00
2018-07-15T08:22:37.383Z,45.00
2018-07-15T08:23:37.342Z,45.00
2018-07-15T08:25:30.517Z,45.00
2018-07-15T08:26:30.480Z,45.00
2018-07-15T08:28:23.595Z,50.63
2018-07-15T08:29:23.448Z,50.63
2018-07-15T08:31:16.292Z,50.63
2018-07-15T08:32:16.259Z,50.63
2018-07-15T08:34:09.337Z,50.63
2018-07-15T08:35:09.302Z,50.63
2018-07-15T08:37:02.152Z,50.63
2018-07-15T08:38:02.098Z,50.63
2018-07-15T08:39:55.111Z,50.63
2018-07-15T08:40:55.081Z,50.63
2018-07-15T08:42:47.917Z,50.63
2018-07-15T08:43:47.874Z,50.63
2018-07-15T08:45:40.878Z,50.63
2018-07-15T08:46:40.860Z,50.63
2018-07-15T08:48:33.868Z,56.25
2018-07-15T08:49:33.818Z,56.25
2018-07-15T08:51:26.997Z,56.25
2018-07-15T08:52:26.958Z,56.25
2018-07-15T08:54:19.969Z,56.25
2018-07-15T08:55:19.929Z,56.25
2018-07-15T08:57:13.085Z,56.25
2018-07-15T08:58:13.064Z,56.25
2018-07-15T09:00:06.133Z,56.25
2018-07-15T09:01:06.103Z,56.25
2018-07-15T09:02:59.142Z,61.88
2018-07-15T09:03:59.098Z,61.88
2018-07-15T09:05:52.142Z,61.88
2018-07-15T09:06:52.110Z,61.88
2018-07-15T09:08:44.952Z,61.88
2018-07-15T09:09:44.894Z,61.88
2018-07-15T09:11:37.912Z,61.88
2018-07-15T09:12:37.928Z,61.88
2018-07-15T09:14:30.729Z,61.88
2018-07-15T09:15:30.672Z,61.88
2018-07-15T09:17:23.709Z,61.88
2018-07-15T09:18:23.716Z,61.88
2018-07-15T09:20:16.747Z,61.88
2018-07-15T09:21:16.746Z,67.50
2018-07-15T09:23:09.584Z,67.50
2018-07-15T09:24:09.543Z,67.50
2018-07-15T09:26:02.595Z,67.50
2018-07-15T09:27:02.568Z,67.50
2018-07-15T09:28:55.614Z,67.50
2018-07-15T09:29:55.575Z,67.50
2018-07-15T09:31:48.394Z,67.50
2018-07-15T09:32:48.359Z,67.50
2018-07-15T09:34:41.430Z,67.50
2018-07-15T09:35:41.495Z,67.50
2018-07-15T09:37:34.431Z,67.50
2018-07-15T09:38:34.388Z,67.50
2018-07-15T09:40:27.619Z,67.50
2018-07-15T09:41:27.553Z,67.50
2018-07-15T09:43:20.589Z,67.50
2018-07-15T09:44:20.563Z,67.50
2018-07-15T09:46:13.844Z,67.50
2018-07-15T09:47:13.720Z,67.50
2018-07-15T09:49:06.775Z,73.13
2018-07-15T09:50:06.742Z,73.13
2018-07-15T09:51:59.970Z,73.13
2018-07-15T09:52:59.935Z,73.13
2018-07-15T09:54:52.989Z,73.13
2018-07-15T09:55:52.959Z,73.13
2018-07-15T09:57:46.191Z,73.13
2018-07-15T09:58:46.136Z,78.75
2018-07-15T10:00:39.204Z,84.38
2018-07-15T10:01:39.259Z,112.50
2018-07-15T10:03:32.416Z,270.00
2018-07-15T10:04:32.410Z,354.38
2018-07-15T10:06:25.450Z,427.50
2018-07-15T10:07:25.509Z,450.00
2018-07-15T10:09:18.647Z,438.75
2018-07-15T10:10:18.618Z,438.75
2018-07-15T10:12:11.467Z,444.38
2018-07-15T10:13:11.433Z,444.38
2018-07-15T10:15:04.486Z,450.00
2018-07-15T10:16:04.435Z,450.00
2018-07-15T10:17:57.301Z,455.63
2018-07-15T10:18:57.314Z,450.00
2018-07-15T10:20:50.325Z,455.63
2018-07-15T10:21:50.279Z,455.63
2018-07-15T10:23:43.131Z,455.63
2018-07-15T10:24:43.160Z,455.63
2018-07-15T10:26:36.392Z,466.88
2018-07-15T10:27:36.250Z,472.50
2018-07-15T10:29:29.277Z,455.63
2018-07-15T10:30:29.250Z,455.63
2018-07-15T10:32:22.307Z,450.00
2018-07-15T10:33:22.263Z,455.63
2018-07-15T10:35:15.310Z,450.00
2018-07-15T10:36:15.292Z,455.63
2018-07-15T10:38:08.361Z,455.63
2018-07-15T10:39:08.419Z,455.63
2018-07-15T10:41:01.192Z,455.63
2018-07-15T10:42:01.162Z,455.63
2018-07-15T10:43:54.216Z,461.25
2018-07-15T10:44:54.185Z,455.63
2018-07-15T10:46:47.220Z,450.00
2018-07-15T10:47:47.196Z,450.00
2018-07-15T10:49:40.064Z,455.63
2018-07-15T10:50:40.016Z,455.63
2018-07-15T10:52:33.084Z,450.00
2018-07-15T10:53:33.037Z,450.00
2018-07-15T10:55:26.088Z,455.63
2018-07-15T10:56:26.071Z,461.25
2018-07-15T10:58:19.202Z,455.63
2018-07-15T10:59:19.165Z,455.63
2018-07-15T11:01:12.718Z,455.63
2018-07-15T11:02:12.493Z,455.63
2018-07-15T11:04:05.528Z,466.88
2018-07-15T11:05:05.497Z,472.50
2018-07-15T11:06:58.559Z,461.25
2018-07-15T11:07:58.533Z,461.25
2018-07-15T11:09:51.448Z,461.25
2018-07-15T11:10:51.416Z,461.25
2018-07-15T11:12:44.529Z,461.25
2018-07-15T11:13:44.497Z,461.25
2018-07-15T11:15:37.615Z,461.25
2018-07-15T11:16:37.624Z,461.25
2018-07-15T11:18:30.645Z,461.25
2018-07-15T11:19:30.616Z,461.25
2018-07-15T11:21:23.656Z,461.25
2018-07-15T11:22:23.701Z,461.25
2018-07-15T11:24:16.498Z,455.63
2018-07-15T11:25:16.460Z,455.63
2018-07-15T11:27:09.574Z,455.63
2018-07-15T11:28:09.546Z,455.63
2018-07-15T11:30:02.389Z,461.25
2018-07-15T11:31:02.524Z,461.25
2018-07-15T11:32:55.572Z,461.25
2018-07-15T11:33:55.534Z,466.88
2018-07-15T11:35:48.381Z,461.25
2018-07-15T11:36:48.353Z,461.25
2018-07-15T11:38:41.653Z,466.88
2018-07-15T11:39:41.388Z,466.88
2018-07-15T11:41:34.350Z,466.88
2018-07-15T11:42:34.228Z,455.63
2018-07-15T11:44:27.372Z,466.88
2018-07-15T11:45:27.388Z,466.88
2018-07-15T11:47:20.638Z,461.25
2018-07-15T11:48:20.597Z,455.63
2018-07-15T11:50:13.580Z,450.00
2018-07-15T11:51:13.583Z,455.63
2018-07-15T11:53:06.854Z,455.63
2018-07-15T11:54:06.744Z,455.63
2018-07-15T11:55:59.805Z,466.88
2018-07-15T11:56:59.754Z,461.25
2018-07-15T11:58:52.853Z,455.63
2018-07-15T11:59:52.820Z,461.25
2018-07-15T12:01:45.690Z,466.88
2018-07-15T12:02:45.668Z,472.50
2018-07-15T12:04:38.713Z,472.50
2018-07-15T12:05:38.705Z,472.50
2018-07-15T12:07:31.902Z,461.25
2018-07-15T12:08:31.883Z,455.63
2018-07-15T12:10:24.913Z,461.25
2018-07-15T12:11:24.875Z,450.00
2018-07-15T12:13:17.743Z,438.75
2018-07-15T12:14:17.708Z,438.75
2018-07-15T12:16:10.595Z,444.38
2018-07-15T12:17:10.555Z,438.75
2018-07-15T12:19:03.614Z,438.75
2018-07-15T12:20:03.581Z,438.75
2018-07-15T12:21:56.636Z,444.38
2018-07-15T12:22:56.605Z,444.38
2018-07-15T12:24:49.470Z,444.38
2018-07-15T12:25:49.448Z,438.75
2018-07-15T12:27:42.479Z,438.75
2018-07-15T12:28:42.444Z,444.38
2018-07-15T12:30:35.527Z,433.13
2018-07-15T12:31:35.474Z,427.50
2018-07-15T12:33:28.418Z,433.13
2018-07-15T12:34:28.315Z,433.13
2018-07-15T12:36:21.410Z,444.38
2018-07-15T12:37:21.375Z,444.38
2018-07-15T12:39:14.689Z,438.75
2018-07-15T12:40:14.566Z,438.75
2018-07-15T12:42:07.420Z,438.75
2018-07-15T12:43:07.397Z,433.13
2018-07-15T12:45:00.437Z,433.13
2018-07-15T12:46:00.406Z,427.50
2018-07-15T12:47:53.582Z,421.88
2018-07-15T12:48:53.536Z,416.25
2018-07-15T12:50:46.612Z,421.88
2018-07-15T12:51:46.567Z,416.25
2018-07-15T12:53:39.760Z,410.63
2018-07-15T12:54:39.758Z,410.63
2018-07-15T12:56:32.806Z,393.75
2018-07-15T12:57:32.856Z,388.13
2018-07-15T12:59:26.017Z,382.50
2018-07-15T13:00:25.926Z,376.88
2018-07-15T13:02:18.975Z,382.50
2018-07-15T13:03:18.951Z,382.50
2018-07-15T13:05:12.248Z,376.88
2018-07-15T13:06:12.101Z,371.25
2018-07-15T13:08:05.152Z,365.63
2018-07-15T13:09:05.131Z,365.63
2018-07-15T13:10:58.192Z,365.63
2018-07-15T13:11:58.135Z,365.63
2018-07-15T13:13:51.185Z,360.00
2018-07-15T13:14:51.162Z,360.00
2018-07-15T13:16:44.203Z,354.38
2018-07-15T13:17:44.217Z,348.75
2018-07-15T13:19:37.372Z,343.13
2018-07-15T13:20:37.332Z,348.75
2018-07-15T13:22:30.393Z,343.13
2018-07-15T13:23:30.388Z,343.13
2018-07-15T13:25:23.213Z,337.50
2018-07-15T13:26:23.196Z,337.50
2018-07-15T13:28:16.106Z,337.50
2018-07-15T13:29:16.104Z,337.50
2018-07-15T13:31:09.108Z,331.88
2018-07-15T13:32:09.068Z,331.88
2018-07-15T13:34:02.121Z,326.25
2018-07-15T13:35:02.094Z,326.25
2018-07-15T13:36:55.158Z,326.25
2018-07-15T13:37:55.130Z,326.25
2018-07-15T13:39:48.170Z,326.25
2018-07-15T13:40:48.157Z,315.00
2018-07-15T13:42:41.021Z,309.38
2018-07-15T13:43:40.995Z,309.38
2018-07-15T13:45:34.058Z,315.00
2018-07-15T13:46:34.020Z,315.00
2018-07-15T13:48:27.069Z,309.38
2018-07-15T13:49:27.032Z,309.38
2018-07-15T13:51:19.878Z,303.75
2018-07-15T13:52:19.857Z,303.75
2018-07-15T13:54:12.978Z,298.13
2018-07-15T13:55:12.916Z,298.13
2018-07-15T13:57:07.876Z,298.13
2018-07-15T13:58:05.952Z,298.13
2018-07-15T13:59:58.813Z,292.50
2018-07-15T14:00:58.774Z,298.13
2018-07-15T14:02:51.838Z,298.13
2018-07-15T14:03:51.794Z,298.13
2018-07-15T14:05:44.825Z,292.50
2018-07-15T14:06:44.789Z,292.50
2018-07-15T14:08:37.664Z,292.50
2018-07-15T14:09:37.642Z,292.50
2018-07-15T14:11:30.499Z,286.88
2018-07-15T14:12:30.464Z,292.50
2018-07-15T14:14:23.532Z,292.50
2018-07-15T14:15:23.550Z,286.88
2018-07-15T14:17:16.657Z,292.50
2018-07-15T14:18:16.649Z,286.88
2018-07-15T14:20:10.666Z,286.88
2018-07-15T14:21:10.695Z,281.25
2018-07-15T14:23:03.898Z,281.25
2018-07-15T14:24:03.880Z,275.63
2018-07-15T14:25:56.919Z,275.63
2018-07-15T14:26:56.875Z,275.63
2018-07-15T14:28:49.734Z,275.63
2018-07-15T14:29:49.700Z,275.63
2018-07-15T14:31:42.719Z,275.63
2018-07-15T14:32:42.693Z,275.63
2018-07-15T14:34:37.661Z,275.63
2018-07-15T14:35:35.755Z,275.63
2018-07-15T14:37:28.988Z,275.63
2018-07-15T14:38:28.848Z,275.63
2018-07-15T14:40:21.887Z,281.25
2018-07-15T14:41:21.846Z,281.25
2018-07-15T14:43:14.921Z,292.50
2018-07-15T14:44:14.889Z,292.50
2018-07-15T14:46:07.991Z,281.25
2018-07-15T14:47:07.920Z,281.25
2018-07-15T14:49:00.934Z,281.25
2018-07-15T14:50:00.915Z,275.63
2018-07-15T14:51:54.374Z,275.63
2018-07-15T14:52:53.743Z,275.63
2018-07-15T14:54:46.765Z,275.63
2018-07-15T14:55:46.745Z,275.63
2018-07-15T14:57:39.785Z,275.63
2018-07-15T14:58:39.734Z,281.25
2018-07-15T15:00:32.944Z,281.25
2018-07-15T15:01:32.865Z,286.88
2018-07-15T15:03:25.896Z,281.25
2018-07-15T15:04:25.915Z,281.25
2018-07-15T15:06:18.706Z,281.25
2018-07-15T15:07:18.689Z,286.88
2018-07-15T15:09:12.010Z,286.88
2018-07-15T15:10:11.961Z,286.88
2018-07-15T15:12:05.068Z,292.50
2018-07-15T15:13:05.109Z,286.88
2018-07-15T15:14:58.075Z,292.50
2018-07-15T15:15:58.060Z,292.50
2018-07-15T15:17:51.111Z,292.50
2018-07-15T15:18:51.066Z,298.13
2018-07-15T15:20:44.277Z,298.13
2018-07-15T15:21:44.261Z,298.13
2018-07-15T15:23:37.298Z,298.13
2018-07-15T15:24:37.296Z,298.13
2018-07-15T15:26:30.545Z,298.13
2018-07-15T15:27:30.511Z,303.75
2018-07-15T15:29:23.581Z,303.75
2018-07-15T15:30:23.551Z,298.13
2018-07-15T15:32:16.382Z,303.75
2018-07-15T15:33:16.365Z,309.38
2018-07-15T15:35:09.444Z,309.38
2018-07-15T15:36:09.416Z,309.38
2018-07-15T15:38:02.456Z,309.38
2018-07-15T15:39:02.432Z,309.38
2018-07-15T15:40:55.592Z,309.38
2018-07-15T15:41:55.575Z,315.00
2018-07-15T15:43:48.552Z,315.00
2018-07-15T15:44:48.650Z,309.38
2018-07-15T15:46:41.734Z,315.00
2018-07-15T15:47:41.684Z,315.00
2018-07-15T15:49:34.733Z,315.00
2018-07-15T15:50:34.678Z,315.00
2018-07-15T15:52:27.711Z,315.00
2018-07-15T15:53:27.683Z,315.00
2018-07-15T15:55:20.783Z,315.00
2018-07-15T15:56:20.738Z,315.00
2018-07-15T15:58:13.912Z,315.00
2018-07-15T15:59:13.753Z,315.00
2018-07-15T16:01:06.699Z,320.63
2018-07-15T16:02:06.663Z,320.63
2018-07-15T16:03:59.513Z,315.00
2018-07-15T16:04:59.475Z,315.00
2018-07-15T16:06:52.346Z,315.00
2018-07-15T16:07:52.298Z,315.00
2018-07-15T16:09:45.314Z,315.00
2018-07-15T16:10:45.280Z,315.00
2018-07-15T16:12:38.353Z,309.38
2018-07-15T16:13:38.335Z,320.63
2018-07-15T16:15:31.365Z,315.00
2018-07-15T16:16:31.409Z,309.38
2018-07-15T16:18:24.451Z,309.38
2018-07-15T16:19:24.424Z,309.38
2018-07-15T16:21:17.283Z,309.38
2018-07-15T16:22:17.258Z,303.75
2018-07-15T16:24:10.263Z,303.75
2018-07-15T16:25:10.284Z,303.75
2018-07-15T16:27:03.443Z,303.75
2018-07-15T16:28:03.360Z,298.13
2018-07-15T16:29:56.362Z,292.50
2018-07-15T16:30:56.352Z,292.50
2018-07-15T16:32:49.565Z,286.88
2018-07-15T16:33:49.564Z,281.25
2018-07-15T16:35:42.540Z,275.63
2018-07-15T16:36:42.519Z,270.00
2018-07-15T16:38:35.546Z,270.00
2018-07-15T16:39:35.506Z,270.00
2018-07-15T16:41:28.386Z,264.38
2018-07-15T16:42:28.385Z,264.38
2018-07-15T16:44:21.223Z,258.75
2018-07-15T16:45:21.176Z,258.75
2018-07-15T16:47:14.021Z,253.13
2018-07-15T16:48:13.994Z,247.50
2018-07-15T16:50:07.063Z,241.88
2018-07-15T16:51:07.009Z,247.50
2018-07-15T16:52:59.851Z,241.88
2018-07-15T16:53:59.814Z,236.25
2018-07-15T16:55:52.895Z,225.00
2018-07-15T16:56:52.801Z,219.38
2018-07-15T16:58:45.823Z,196.88
2018-07-15T16:59:45.756Z,191.25
2018-07-15T17:01:38.646Z,185.63
2018-07-15T17:02:38.615Z,185.63
2018-07-15T17:04:31.609Z,180.00
2018-07-15T17:05:31.580Z,168.75
2018-07-15T17:07:24.576Z,174.38
2018-07-15T17:08:24.541Z,174.38
2018-07-15T17:10:17.390Z,174.38
2018-07-15T17:11:17.365Z,168.75
2018-07-15T17:13:10.198Z,163.13
2018-07-15T17:14:10.199Z,157.50
2018-07-15T17:16:03.175Z,151.88
2018-07-15T17:17:03.123Z,146.25
2018-07-15T17:18:56.182Z,146.25
2018-07-15T17:19:56.139Z,146.25
2018-07-15T17:21:48.975Z,135.00
2018-07-15T17:22:48.951Z,135.00
2018-07-15T17:24:41.842Z,135.00
2018-07-15T17:25:41.765Z,129.38
2018-07-15T17:27:34.625Z,123.75
2018-07-15T17:28:34.571Z,123.75
2018-07-15T17:30:27.581Z,118.13
2018-07-15T17:31:27.540Z,118.13
2018-07-15T17:33:20.676Z,118.13
2018-07-15T17:34:20.667Z,112.50
2018-07-15T17:36:13.674Z,112.50
2018-07-15T17:37:13.726Z,106.88
2018-07-15T17:39:06.757Z,101.25
2018-07-15T17:40:06.732Z,101.25
2018-07-15T17:41:59.811Z,95.63
2018-07-15T17:42:59.702Z,95.63
2018-07-15T17:44:52.696Z,95.63
2018-07-15T17:45:52.696Z,95.63
2018-07-15T17:47:46.028Z,90.00
2018-07-15T17:48:45.990Z,90.00
2018-07-15T17:50:40.017Z,84.38
2018-07-15T17:51:39.949Z,84.38
2018-07-15T17:53:32.811Z,78.75
2018-07-15T17:54:32.756Z,78.75
2018-07-15T17:56:25.775Z,78.75
2018-07-15T17:57:25.723Z,78.75
2018-07-15T17:59:18.737Z,73.13
2018-07-15T18:00:18.728Z,73.13
2018-07-15T18:02:11.681Z,67.50
2018-07-15T18:03:11.658Z,67.50
2018-07-15T18:05:04.624Z,67.50
2018-07-15T18:06:04.601Z,67.50
2018-07-15T18:07:57.452Z,61.88
2018-07-15T18:08:57.408Z,56.25
2018-07-15T18:10:50.544Z,56.25
2018-07-15T18:11:50.515Z,56.25
2018-07-15T18:13:43.528Z,56.25
2018-07-15T18:14:43.481Z,56.25
2018-07-15T18:16:36.487Z,56.25
2018-07-15T18:17:36.436Z,56.25
2018-07-15T18:19:29.331Z,50.63
2018-07-15T18:20:29.303Z,50.63
2018-07-15T18:22:22.162Z,45.00
2018-07-15T18:23:22.084Z,39.38
2018-07-15T18:25:15.088Z,33.75
2018-07-15T18:26:15.049Z,33.75
2018-07-15T18:28:08.067Z,28.13